sensor_id;sensor_type;location;lat;lon;timestamp;P1;durP1;ratioP1;P2;durP2;ratioP2
57345;SDS011;43181;50.974;18.244;2023-04-30T00:01:42;3.00;;;2.00;;
57345;SDS011;43181;50.974;18.244;2023-04-30T00:04:09;7.10;;;3.20;;
57345;SDS011;43181;50.974;18.244;2023-04-30T00:06:34;4.30;;;2.20;;
57345;SDS011;43181;50.974;18.244;2023-04-30T00:09:02;3.70;;;2.70;;
57345;SDS011;43181;50.974;18.244;2023-04-30T00:11:28;2.10;;;1.90;;
57345;SDS011;43181;50.974;18.244;2023-04-30T00:13:54;3.20;;;2.90;;
57345;SDS011;43181;50.974;18.244;2023-04-30T00:16:21;2.20;;;2.00;;
57345;SDS011;43181;50.974;18.244;2023-04-30T00:18:47;3.70;;;2.40;;
57345;SDS011;43181;50.974;18.244;2023-04-30T00:21:12;3.80;;;2.80;;
57345;SDS011;43181;50.974;18.244;2023-04-30T00:23:38;3.30;;;2.90;;
57345;SDS011;43181;50.974;18.244;2023-04-30T00:26:04;1.60;;;1.40;;
57345;SDS011;43181;50.974;18.244;2023-04-30T00:28:29;3.20;;;1.70;;
57345;SDS011;43181;50.974;18.244;2023-04-30T00:30:55;3.30;;;2.10;;
57345;SDS011;43181;50.974;18.244;2023-04-30T00:33:20;3.00;;;1.80;;
57345;SDS011;43181;50.974;18.244;2023-04-30T00:35:46;2.20;;;1.30;;
57345;SDS011;43181;50.974;18.244;2023-04-30T00:38:12;4.20;;;2.30;;
57345;SDS011;43181;50.974;18.244;2023-04-30T00:40:37;1.90;;;1.80;;
57345;SDS011;43181;50.974;18.244;2023-04-30T00:43:05;2.40;;;1.40;;
57345;SDS011;43181;50.974;18.244;2023-04-30T00:45:31;4.90;;;1.90;;
57345;SDS011;43181;50.974;18.244;2023-04-30T00:47:57;1.30;;;1.30;;
57345;SDS011;43181;50.974;18.244;2023-04-30T00:50:22;3.70;;;1.90;;
57345;SDS011;43181;50.974;18.244;2023-04-30T00:52:49;2.10;;;1.30;;
57345;SDS011;43181;50.974;18.244;2023-04-30T00:55:14;7.30;;;4.10;;
57345;SDS011;43181;50.974;18.244;2023-04-30T00:57:41;3.10;;;2.80;;
57345;SDS011;43181;50.974;18.244;2023-04-30T01:00:07;2.80;;;2.60;;
57345;SDS011;43181;50.974;18.244;2023-04-30T01:02:36;2.60;;;1.50;;
57345;SDS011;43181;50.974;18.244;2023-04-30T01:05:02;2.10;;;2.00;;
57345;SDS011;43181;50.974;18.244;2023-04-30T01:07:29;1.50;;;1.40;;
57345;SDS011;43181;50.974;18.244;2023-04-30T01:09:55;2.00;;;1.20;;
57345;SDS011;43181;50.974;18.244;2023-04-30T01:15:24;4.40;;;2.00;;
57345;SDS011;43181;50.974;18.244;2023-04-30T01:17:54;2.20;;;1.20;;
57345;SDS011;43181;50.974;18.244;2023-04-30T01:20:21;2.50;;;2.10;;
57345;SDS011;43181;50.974;18.244;2023-04-30T01:23:10;1.40;;;1.20;;
57345;SDS011;43181;50.974;18.244;2023-04-30T01:25:59;6.20;;;2.70;;
57345;SDS011;43181;50.974;18.244;2023-04-30T01:28:29;4.90;;;2.00;;
57345;SDS011;43181;50.974;18.244;2023-04-30T01:30:55;3.70;;;2.20;;
57345;SDS011;43181;50.974;18.244;2023-04-30T01:33:20;6.30;;;2.00;;
57345;SDS011;43181;50.974;18.244;2023-04-30T01:47:03;1.90;;;1.60;;
57345;SDS011;43181;50.974;18.244;2023-04-30T01:52:21;4.70;;;1.70;;
57345;SDS011;43181;50.974;18.244;2023-04-30T01:54:59;1.70;;;1.60;;
57345;SDS011;43181;50.974;18.244;2023-04-30T01:58:12;2.00;;;1.90;;
57345;SDS011;43181;50.974;18.244;2023-04-30T02:00:26;2.30;;;1.30;;
57345;SDS011;43181;50.974;18.244;2023-04-30T02:02:52;3.30;;;1.00;;
57345;SDS011;43181;50.974;18.244;2023-04-30T02:05:18;1.80;;;1.70;;
57345;SDS011;43181;50.974;18.244;2023-04-30T02:07:45;3.80;;;1.80;;
57345;SDS011;43181;50.974;18.244;2023-04-30T02:10:14;4.30;;;2.20;;
57345;SDS011;43181;50.974;18.244;2023-04-30T02:12:41;2.30;;;1.60;;
57345;SDS011;43181;50.974;18.244;2023-04-30T02:15:06;3.40;;;2.30;;
57345;SDS011;43181;50.974;18.244;2023-04-30T02:17:33;2.00;;;1.00;;
57345;SDS011;43181;50.974;18.244;2023-04-30T02:20:01;1.40;;;1.20;;
57345;SDS011;43181;50.974;18.244;2023-04-30T02:22:27;4.10;;;1.80;;
57345;SDS011;43181;50.974;18.244;2023-04-30T02:24:53;1.70;;;1.50;;
57345;SDS011;43181;50.974;18.244;2023-04-30T02:27:20;2.10;;;1.40;;
57345;SDS011;43181;50.974;18.244;2023-04-30T02:29:46;0.60;;;0.60;;
57345;SDS011;43181;50.974;18.244;2023-04-30T02:32:12;1.20;;;1.10;;
57345;SDS011;43181;50.974;18.244;2023-04-30T02:34:39;5.30;;;1.80;;
57345;SDS011;43181;50.974;18.244;2023-04-30T02:37:05;2.30;;;2.00;;
57345;SDS011;43181;50.974;18.244;2023-04-30T02:39:31;3.80;;;1.90;;
57345;SDS011;43181;50.974;18.244;2023-04-30T02:41:57;2.10;;;2.00;;
57345;SDS011;43181;50.974;18.244;2023-04-30T02:44:23;1.30;;;1.20;;
57345;SDS011;43181;50.974;18.244;2023-04-30T02:46:49;1.80;;;1.60;;
57345;SDS011;43181;50.974;18.244;2023-04-30T02:49:15;2.20;;;2.00;;
57345;SDS011;43181;50.974;18.244;2023-04-30T02:51:41;1.80;;;1.40;;
57345;SDS011;43181;50.974;18.244;2023-04-30T02:54:06;2.10;;;2.00;;
57345;SDS011;43181;50.974;18.244;2023-04-30T02:56:32;1.40;;;1.40;;
57345;SDS011;43181;50.974;18.244;2023-04-30T02:58:59;1.50;;;1.20;;
57345;SDS011;43181;50.974;18.244;2023-04-30T03:01:25;1.10;;;1.00;;
57345;SDS011;43181;50.974;18.244;2023-04-30T03:03:50;2.00;;;1.80;;
57345;SDS011;43181;50.974;18.244;2023-04-30T03:06:16;2.20;;;2.10;;
57345;SDS011;43181;50.974;18.244;2023-04-30T03:08:42;3.50;;;1.40;;
57345;SDS011;43181;50.974;18.244;2023-04-30T03:11:08;1.90;;;1.50;;
57345;SDS011;43181;50.974;18.244;2023-04-30T03:13:33;1.70;;;1.60;;
57345;SDS011;43181;50.974;18.244;2023-04-30T03:15:59;2.40;;;2.20;;
57345;SDS011;43181;50.974;18.244;2023-04-30T03:18:26;0.80;;;0.80;;
57345;SDS011;43181;50.974;18.244;2023-04-30T03:20:53;1.50;;;1.40;;
57345;SDS011;43181;50.974;18.244;2023-04-30T03:23:19;2.00;;;1.80;;
57345;SDS011;43181;50.974;18.244;2023-04-30T03:25:45;2.40;;;1.80;;
57345;SDS011;43181;50.974;18.244;2023-04-30T03:28:11;1.10;;;1.10;;
57345;SDS011;43181;50.974;18.244;2023-04-30T03:30:37;2.30;;;1.50;;
57345;SDS011;43181;50.974;18.244;2023-04-30T03:33:02;1.60;;;1.10;;
57345;SDS011;43181;50.974;18.244;2023-04-30T03:35:31;1.60;;;1.50;;
57345;SDS011;43181;50.974;18.244;2023-04-30T03:37:58;3.70;;;1.40;;
57345;SDS011;43181;50.974;18.244;2023-04-30T03:40:24;2.30;;;1.50;;
57345;SDS011;43181;50.974;18.244;2023-04-30T03:42:50;5.10;;;1.20;;
57345;SDS011;43181;50.974;18.244;2023-04-30T03:45:15;5.80;;;1.80;;
57345;SDS011;43181;50.974;18.244;2023-04-30T03:47:41;4.00;;;2.60;;
57345;SDS011;43181;50.974;18.244;2023-04-30T03:50:08;1.90;;;1.80;;
57345;SDS011;43181;50.974;18.244;2023-04-30T03:52:34;1.30;;;1.20;;
57345;SDS011;43181;50.974;18.244;2023-04-30T03:55:01;1.20;;;1.10;;
57345;SDS011;43181;50.974;18.244;2023-04-30T03:57:27;2.00;;;1.70;;
57345;SDS011;43181;50.974;18.244;2023-04-30T03:59:53;1.10;;;1.00;;
57345;SDS011;43181;50.974;18.244;2023-04-30T04:02:19;1.90;;;1.40;;
57345;SDS011;43181;50.974;18.244;2023-04-30T04:04:45;1.50;;;1.40;;
57345;SDS011;43181;50.974;18.244;2023-04-30T04:07:11;3.10;;;2.00;;
57345;SDS011;43181;50.974;18.244;2023-04-30T04:09:37;6.10;;;3.40;;
57345;SDS011;43181;50.974;18.244;2023-04-30T04:12:03;2.10;;;1.80;;
57345;SDS011;43181;50.974;18.244;2023-04-30T04:14:29;3.70;;;1.90;;
57345;SDS011;43181;50.974;18.244;2023-04-30T04:16:55;5.60;;;1.90;;
57345;SDS011;43181;50.974;18.244;2023-04-30T04:19:22;1.60;;;1.50;;
57345;SDS011;43181;50.974;18.244;2023-04-30T04:21:48;1.00;;;1.00;;
57345;SDS011;43181;50.974;18.244;2023-04-30T04:24:14;2.60;;;1.50;;
57345;SDS011;43181;50.974;18.244;2023-04-30T04:26:39;3.00;;;1.80;;
57345;SDS011;43181;50.974;18.244;2023-04-30T04:29:05;4.10;;;2.10;;
57345;SDS011;43181;50.974;18.244;2023-04-30T04:31:34;4.10;;;2.40;;
57345;SDS011;43181;50.974;18.244;2023-04-30T04:34:01;2.20;;;1.20;;
57345;SDS011;43181;50.974;18.244;2023-04-30T04:36:27;3.20;;;1.40;;
57345;SDS011;43181;50.974;18.244;2023-04-30T04:38:54;1.40;;;1.10;;
57345;SDS011;43181;50.974;18.244;2023-04-30T04:41:30;3.90;;;2.00;;
57345;SDS011;43181;50.974;18.244;2023-04-30T04:44:02;2.00;;;1.90;;
57345;SDS011;43181;50.974;18.244;2023-04-30T04:46:29;2.00;;;1.60;;
57345;SDS011;43181;50.974;18.244;2023-04-30T04:48:56;2.60;;;1.70;;
57345;SDS011;43181;50.974;18.244;2023-04-30T04:51:22;1.50;;;1.40;;
57345;SDS011;43181;50.974;18.244;2023-04-30T04:53:48;3.50;;;1.50;;
57345;SDS011;43181;50.974;18.244;2023-04-30T04:56:14;1.40;;;1.30;;
57345;SDS011;43181;50.974;18.244;2023-04-30T04:58:40;3.00;;;2.20;;
57345;SDS011;43181;50.974;18.244;2023-04-30T05:01:07;2.20;;;1.30;;
57345;SDS011;43181;50.974;18.244;2023-04-30T05:03:33;2.10;;;1.90;;
57345;SDS011;43181;50.974;18.244;2023-04-30T05:06:03;2.50;;;1.70;;
57345;SDS011;43181;50.974;18.244;2023-04-30T05:08:29;2.00;;;0.90;;
57345;SDS011;43181;50.974;18.244;2023-04-30T05:10:54;2.40;;;1.60;;
57345;SDS011;43181;50.974;18.244;2023-04-30T05:13:20;2.90;;;1.80;;
57345;SDS011;43181;50.974;18.244;2023-04-30T05:15:48;2.60;;;1.50;;
57345;SDS011;43181;50.974;18.244;2023-04-30T05:18:15;5.00;;;1.60;;
57345;SDS011;43181;50.974;18.244;2023-04-30T05:20:40;2.40;;;2.20;;
57345;SDS011;43181;50.974;18.244;2023-04-30T05:23:06;3.40;;;2.00;;
57345;SDS011;43181;50.974;18.244;2023-04-30T05:25:32;1.90;;;1.30;;
57345;SDS011;43181;50.974;18.244;2023-04-30T05:27:58;4.20;;;1.60;;
57345;SDS011;43181;50.974;18.244;2023-04-30T05:30:23;2.20;;;2.00;;
57345;SDS011;43181;50.974;18.244;2023-04-30T05:32:49;2.00;;;1.60;;
57345;SDS011;43181;50.974;18.244;2023-04-30T05:35:17;3.00;;;1.20;;
57345;SDS011;43181;50.974;18.244;2023-04-30T05:37:43;1.30;;;1.20;;
57345;SDS011;43181;50.974;18.244;2023-04-30T05:40:09;1.70;;;1.20;;
57345;SDS011;43181;50.974;18.244;2023-04-30T05:42:36;1.60;;;1.40;;
57345;SDS011;43181;50.974;18.244;2023-04-30T05:45:02;1.50;;;1.40;;
57345;SDS011;43181;50.974;18.244;2023-04-30T05:47:28;2.80;;;2.40;;
57345;SDS011;43181;50.974;18.244;2023-04-30T05:49:55;3.30;;;2.20;;
57345;SDS011;43181;50.974;18.244;2023-04-30T05:52:22;1.40;;;1.10;;
57345;SDS011;43181;50.974;18.244;2023-04-30T05:54:47;2.10;;;1.20;;
57345;SDS011;43181;50.974;18.244;2023-04-30T05:57:15;2.90;;;1.70;;
57345;SDS011;43181;50.974;18.244;2023-04-30T05:59:41;1.90;;;1.70;;
57345;SDS011;43181;50.974;18.244;2023-04-30T06:02:07;3.30;;;2.00;;
57345;SDS011;43181;50.974;18.244;2023-04-30T06:04:35;3.60;;;2.10;;
57345;SDS011;43181;50.974;18.244;2023-04-30T06:07:01;0.80;;;0.80;;
57345;SDS011;43181;50.974;18.244;2023-04-30T06:09:27;0.60;;;0.60;;
57345;SDS011;43181;50.974;18.244;2023-04-30T06:11:53;5.00;;;2.20;;
57345;SDS011;43181;50.974;18.244;2023-04-30T06:14:20;1.90;;;1.70;;
57345;SDS011;43181;50.974;18.244;2023-04-30T06:16:47;2.40;;;1.30;;
57345;SDS011;43181;50.974;18.244;2023-04-30T06:19:12;1.00;;;0.70;;
57345;SDS011;43181;50.974;18.244;2023-04-30T06:21:38;3.30;;;1.30;;
57345;SDS011;43181;50.974;18.244;2023-04-30T06:24:04;3.60;;;0.80;;
57345;SDS011;43181;50.974;18.244;2023-04-30T06:26:30;1.50;;;1.40;;
57345;SDS011;43181;50.974;18.244;2023-04-30T06:28:56;0.90;;;0.90;;
57345;SDS011;43181;50.974;18.244;2023-04-30T06:31:22;2.40;;;1.10;;
57345;SDS011;43181;50.974;18.244;2023-04-30T06:33:48;5.10;;;1.10;;
57345;SDS011;43181;50.974;18.244;2023-04-30T06:36:14;2.00;;;1.30;;
57345;SDS011;43181;50.974;18.244;2023-04-30T06:38:40;3.20;;;1.80;;
57345;SDS011;43181;50.974;18.244;2023-04-30T06:41:07;2.30;;;1.00;;
57345;SDS011;43181;50.974;18.244;2023-04-30T06:43:33;4.10;;;1.80;;
57345;SDS011;43181;50.974;18.244;2023-04-30T06:45:59;2.60;;;1.40;;
57345;SDS011;43181;50.974;18.244;2023-04-30T06:48:25;3.40;;;2.10;;
57345;SDS011;43181;50.974;18.244;2023-04-30T06:50:50;3.90;;;1.00;;
57345;SDS011;43181;50.974;18.244;2023-04-30T06:53:16;1.60;;;1.20;;
57345;SDS011;43181;50.974;18.244;2023-04-30T06:55:43;4.10;;;1.50;;
57345;SDS011;43181;50.974;18.244;2023-04-30T06:58:09;0.90;;;0.70;;
57345;SDS011;43181;50.974;18.244;2023-04-30T07:00:35;2.50;;;1.30;;
57345;SDS011;43181;50.974;18.244;2023-04-30T07:03:01;3.20;;;1.40;;
57345;SDS011;43181;50.974;18.244;2023-04-30T07:05:31;2.80;;;1.60;;
57345;SDS011;43181;50.974;18.244;2023-04-30T07:07:57;1.20;;;0.70;;
57345;SDS011;43181;50.974;18.244;2023-04-30T07:10:25;1.50;;;1.20;;
57345;SDS011;43181;50.974;18.244;2023-04-30T07:12:51;2.80;;;1.20;;
57345;SDS011;43181;50.974;18.244;2023-04-30T07:15:17;3.20;;;1.20;;
57345;SDS011;43181;50.974;18.244;2023-04-30T07:17:42;1.50;;;0.90;;
57345;SDS011;43181;50.974;18.244;2023-04-30T07:20:08;5.30;;;1.80;;
57345;SDS011;43181;50.974;18.244;2023-04-30T07:22:34;1.30;;;1.10;;
57345;SDS011;43181;50.974;18.244;2023-04-30T07:25:00;1.50;;;1.20;;
57345;SDS011;43181;50.974;18.244;2023-04-30T07:27:25;1.20;;;0.80;;
57345;SDS011;43181;50.974;18.244;2023-04-30T07:29:52;0.60;;;0.60;;
57345;SDS011;43181;50.974;18.244;2023-04-30T07:32:19;3.00;;;0.80;;
57345;SDS011;43181;50.974;18.244;2023-04-30T07:34:44;1.50;;;0.80;;
57345;SDS011;43181;50.974;18.244;2023-04-30T07:37:10;2.50;;;1.30;;
57345;SDS011;43181;50.974;18.244;2023-04-30T07:39:36;1.10;;;0.80;;
57345;SDS011;43181;50.974;18.244;2023-04-30T07:42:02;1.50;;;0.70;;
57345;SDS011;43181;50.974;18.244;2023-04-30T07:44:29;5.70;;;1.40;;
57345;SDS011;43181;50.974;18.244;2023-04-30T07:46:55;1.10;;;0.70;;
57345;SDS011;43181;50.974;18.244;2023-04-30T07:49:21;3.40;;;1.20;;
57345;SDS011;43181;50.974;18.244;2023-04-30T07:51:47;0.90;;;0.50;;
57345;SDS011;43181;50.974;18.244;2023-04-30T07:54:13;1.40;;;0.90;;
57345;SDS011;43181;50.974;18.244;2023-04-30T07:56:38;1.20;;;0.70;;
57345;SDS011;43181;50.974;18.244;2023-04-30T07:59:04;1.70;;;0.70;;
57345;SDS011;43181;50.974;18.244;2023-04-30T08:01:30;3.00;;;0.80;;
57345;SDS011;43181;50.974;18.244;2023-04-30T08:03:56;1.30;;;0.80;;
57345;SDS011;43181;50.974;18.244;2023-04-30T08:06:22;1.00;;;0.90;;
57345;SDS011;43181;50.974;18.244;2023-04-30T08:08:48;2.80;;;1.20;;
57345;SDS011;43181;50.974;18.244;2023-04-30T08:11:13;2.40;;;1.10;;
57345;SDS011;43181;50.974;18.244;2023-04-30T08:13:40;1.20;;;0.90;;
57345;SDS011;43181;50.974;18.244;2023-04-30T08:16:07;3.80;;;1.20;;
57345;SDS011;43181;50.974;18.244;2023-04-30T08:18:33;1.40;;;0.90;;
57345;SDS011;43181;50.974;18.244;2023-04-30T08:20:58;1.30;;;0.80;;
57345;SDS011;43181;50.974;18.244;2023-04-30T08:23:25;0.90;;;0.60;;
57345;SDS011;43181;50.974;18.244;2023-04-30T08:25:51;2.10;;;0.60;;
57345;SDS011;43181;50.974;18.244;2023-04-30T08:28:17;1.70;;;0.90;;
57345;SDS011;43181;50.974;18.244;2023-04-30T08:30:43;2.40;;;0.90;;
57345;SDS011;43181;50.974;18.244;2023-04-30T08:33:09;1.60;;;0.70;;
57345;SDS011;43181;50.974;18.244;2023-04-30T08:35:35;2.20;;;0.90;;
57345;SDS011;43181;50.974;18.244;2023-04-30T08:38:01;1.30;;;0.70;;
57345;SDS011;43181;50.974;18.244;2023-04-30T08:40:27;1.00;;;0.80;;
57345;SDS011;43181;50.974;18.244;2023-04-30T08:42:57;0.50;;;0.40;;
57345;SDS011;43181;50.974;18.244;2023-04-30T08:45:28;0.90;;;0.60;;
57345;SDS011;43181;50.974;18.244;2023-04-30T08:47:55;0.70;;;0.60;;
57345;SDS011;43181;50.974;18.244;2023-04-30T08:50:23;2.00;;;0.70;;
57345;SDS011;43181;50.974;18.244;2023-04-30T08:52:49;0.70;;;0.70;;
57345;SDS011;43181;50.974;18.244;2023-04-30T08:55:15;0.80;;;0.70;;
57345;SDS011;43181;50.974;18.244;2023-04-30T08:57:41;3.80;;;0.90;;
57345;SDS011;43181;50.974;18.244;2023-04-30T09:00:06;1.00;;;0.90;;
57345;SDS011;43181;50.974;18.244;2023-04-30T09:02:33;1.10;;;0.80;;
57345;SDS011;43181;50.974;18.244;2023-04-30T09:04:59;1.30;;;1.00;;
57345;SDS011;43181;50.974;18.244;2023-04-30T09:07:25;1.20;;;0.80;;
57345;SDS011;43181;50.974;18.244;2023-04-30T09:09:53;0.70;;;0.70;;
57345;SDS011;43181;50.974;18.244;2023-04-30T09:12:19;2.30;;;0.70;;
57345;SDS011;43181;50.974;18.244;2023-04-30T09:15:27;3.60;;;0.70;;
57345;SDS011;43181;50.974;18.244;2023-04-30T09:17:33;1.00;;;0.60;;
57345;SDS011;43181;50.974;18.244;2023-04-30T09:20:12;1.20;;;0.50;;
57345;SDS011;43181;50.974;18.244;2023-04-30T09:22:39;1.20;;;0.90;;
57345;SDS011;43181;50.974;18.244;2023-04-30T09:25:06;0.90;;;0.80;;
57345;SDS011;43181;50.974;18.244;2023-04-30T09:27:32;1.10;;;0.90;;
57345;SDS011;43181;50.974;18.244;2023-04-30T09:29:58;0.80;;;0.70;;
57345;SDS011;43181;50.974;18.244;2023-04-30T09:32:24;1.20;;;0.70;;
57345;SDS011;43181;50.974;18.244;2023-04-30T09:34:50;1.90;;;1.10;;
57345;SDS011;43181;50.974;18.244;2023-04-30T09:37:15;0.90;;;0.40;;
57345;SDS011;43181;50.974;18.244;2023-04-30T09:39:48;0.70;;;0.70;;
57345;SDS011;43181;50.974;18.244;2023-04-30T09:42:20;0.60;;;0.50;;
57345;SDS011;43181;50.974;18.244;2023-04-30T09:44:46;1.20;;;0.70;;
57345;SDS011;43181;50.974;18.244;2023-04-30T09:47:16;2.60;;;1.00;;
57345;SDS011;43181;50.974;18.244;2023-04-30T09:49:46;1.60;;;0.90;;
57345;SDS011;43181;50.974;18.244;2023-04-30T09:52:16;0.50;;;0.40;;
57345;SDS011;43181;50.974;18.244;2023-04-30T09:54:42;0.60;;;0.50;;
57345;SDS011;43181;50.974;18.244;2023-04-30T09:57:09;0.70;;;0.70;;
57345;SDS011;43181;50.974;18.244;2023-04-30T09:59:36;0.60;;;0.60;;
57345;SDS011;43181;50.974;18.244;2023-04-30T10:02:07;2.50;;;0.70;;
57345;SDS011;43181;50.974;18.244;2023-04-30T10:04:33;1.30;;;0.80;;
57345;SDS011;43181;50.974;18.244;2023-04-30T10:09:45;0.90;;;0.80;;
57345;SDS011;43181;50.974;18.244;2023-04-30T10:12:14;1.00;;;0.50;;
57345;SDS011;43181;50.974;18.244;2023-04-30T10:14:45;1.10;;;1.00;;
57345;SDS011;43181;50.974;18.244;2023-04-30T10:17:15;1.50;;;0.70;;
57345;SDS011;43181;50.974;18.244;2023-04-30T10:19:44;5.50;;;1.00;;
57345;SDS011;43181;50.974;18.244;2023-04-30T10:22:12;5.30;;;0.70;;
57345;SDS011;43181;50.974;18.244;2023-04-30T10:24:40;1.10;;;0.70;;
57345;SDS011;43181;50.974;18.244;2023-04-30T10:27:07;1.30;;;0.90;;
57345;SDS011;43181;50.974;18.244;2023-04-30T10:29:33;1.90;;;1.30;;
57345;SDS011;43181;50.974;18.244;2023-04-30T10:31:59;1.70;;;1.00;;
57345;SDS011;43181;50.974;18.244;2023-04-30T10:34:59;0.90;;;0.60;;
57345;SDS011;43181;50.974;18.244;2023-04-30T10:37:24;1.30;;;0.50;;
57345;SDS011;43181;50.974;18.244;2023-04-30T10:39:50;0.60;;;0.40;;
57345;SDS011;43181;50.974;18.244;2023-04-30T10:42:16;0.40;;;0.30;;
57345;SDS011;43181;50.974;18.244;2023-04-30T10:44:42;0.90;;;0.70;;
57345;SDS011;43181;50.974;18.244;2023-04-30T10:47:10;1.60;;;0.70;;
57345;SDS011;43181;50.974;18.244;2023-04-30T10:49:36;1.20;;;0.50;;
57345;SDS011;43181;50.974;18.244;2023-04-30T10:52:03;0.70;;;0.70;;
57345;SDS011;43181;50.974;18.244;2023-04-30T10:54:35;0.40;;;0.40;;
57345;SDS011;43181;50.974;18.244;2023-04-30T10:57:12;6.00;;;0.70;;
57345;SDS011;43181;50.974;18.244;2023-04-30T10:59:42;1.20;;;0.90;;
57345;SDS011;43181;50.974;18.244;2023-04-30T11:02:15;0.80;;;0.50;;
57345;SDS011;43181;50.974;18.244;2023-04-30T11:07:32;1.90;;;0.50;;
57345;SDS011;43181;50.974;18.244;2023-04-30T11:09:59;1.10;;;0.60;;
57345;SDS011;43181;50.974;18.244;2023-04-30T11:12:26;1.30;;;0.60;;
57345;SDS011;43181;50.974;18.244;2023-04-30T11:14:57;2.20;;;0.40;;
57345;SDS011;43181;50.974;18.244;2023-04-30T11:17:30;1.00;;;0.70;;
57345;SDS011;43181;50.974;18.244;2023-04-30T11:19:58;1.20;;;0.60;;
57345;SDS011;43181;50.974;18.244;2023-04-30T11:22:28;2.90;;;1.20;;
57345;SDS011;43181;50.974;18.244;2023-04-30T11:27:33;4.40;;;1.70;;
57345;SDS011;43181;50.974;18.244;2023-04-30T11:30:00;2.70;;;1.00;;
57345;SDS011;43181;50.974;18.244;2023-04-30T11:32:35;1.60;;;0.90;;
57345;SDS011;43181;50.974;18.244;2023-04-30T11:35:03;1.30;;;0.70;;
57345;SDS011;43181;50.974;18.244;2023-04-30T11:37:30;3.50;;;0.60;;
57345;SDS011;43181;50.974;18.244;2023-04-30T11:40:02;1.00;;;0.50;;
57345;SDS011;43181;50.974;18.244;2023-04-30T11:42:30;5.80;;;0.60;;
57345;SDS011;43181;50.974;18.244;2023-04-30T11:45:03;1.40;;;0.70;;
57345;SDS011;43181;50.974;18.244;2023-04-30T11:47:39;1.10;;;0.50;;
57345;SDS011;43181;50.974;18.244;2023-04-30T11:50:11;1.40;;;0.40;;
57345;SDS011;43181;50.974;18.244;2023-04-30T11:52:38;0.80;;;0.30;;
57345;SDS011;43181;50.974;18.244;2023-04-30T11:55:05;0.50;;;0.40;;
57345;SDS011;43181;50.974;18.244;2023-04-30T11:57:44;0.40;;;0.30;;
57345;SDS011;43181;50.974;18.244;2023-04-30T12:02:43;0.90;;;0.40;;
57345;SDS011;43181;50.974;18.244;2023-04-30T12:07:38;0.20;;;0.20;;
57345;SDS011;43181;50.974;18.244;2023-04-30T12:10:04;1.20;;;0.40;;
57345;SDS011;43181;50.974;18.244;2023-04-30T12:12:31;0.40;;;0.30;;
57345;SDS011;43181;50.974;18.244;2023-04-30T12:14:57;1.90;;;0.40;;
57345;SDS011;43181;50.974;18.244;2023-04-30T12:17:33;0.60;;;0.40;;
57345;SDS011;43181;50.974;18.244;2023-04-30T12:19:59;0.40;;;0.20;;
57345;SDS011;43181;50.974;18.244;2023-04-30T12:22:25;0.90;;;0.60;;
57345;SDS011;43181;50.974;18.244;2023-04-30T12:24:50;0.50;;;0.20;;
57345;SDS011;43181;50.974;18.244;2023-04-30T12:27:18;2.80;;;1.00;;
57345;SDS011;43181;50.974;18.244;2023-04-30T12:29:44;0.80;;;0.30;;
57345;SDS011;43181;50.974;18.244;2023-04-30T12:32:11;1.20;;;0.30;;
57345;SDS011;43181;50.974;18.244;2023-04-30T12:34:40;0.50;;;0.40;;
57345;SDS011;43181;50.974;18.244;2023-04-30T12:37:06;0.30;;;0.20;;
57345;SDS011;43181;50.974;18.244;2023-04-30T12:39:32;0.40;;;0.40;;
57345;SDS011;43181;50.974;18.244;2023-04-30T12:41:59;0.80;;;0.50;;
57345;SDS011;43181;50.974;18.244;2023-04-30T12:44:25;1.00;;;0.50;;
57345;SDS011;43181;50.974;18.244;2023-04-30T12:46:55;0.50;;;0.30;;
57345;SDS011;43181;50.974;18.244;2023-04-30T12:51:49;0.70;;;0.40;;
57345;SDS011;43181;50.974;18.244;2023-04-30T12:54:14;0.30;;;0.30;;
57345;SDS011;43181;50.974;18.244;2023-04-30T12:56:56;3.60;;;0.70;;
57345;SDS011;43181;50.974;18.244;2023-04-30T12:59:36;0.60;;;0.50;;
57345;SDS011;43181;50.974;18.244;2023-04-30T13:04:36;0.30;;;0.30;;
57345;SDS011;43181;50.974;18.244;2023-04-30T13:07:02;0.60;;;0.50;;
57345;SDS011;43181;50.974;18.244;2023-04-30T13:09:29;0.30;;;0.30;;
57345;SDS011;43181;50.974;18.244;2023-04-30T13:11:56;0.30;;;0.30;;
57345;SDS011;43181;50.974;18.244;2023-04-30T13:14:21;1.60;;;0.80;;
57345;SDS011;43181;50.974;18.244;2023-04-30T13:16:47;0.70;;;0.40;;
57345;SDS011;43181;50.974;18.244;2023-04-30T13:19:12;1.40;;;0.50;;
57345;SDS011;43181;50.974;18.244;2023-04-30T13:21:38;0.20;;;0.20;;
57345;SDS011;43181;50.974;18.244;2023-04-30T13:24:04;1.50;;;1.10;;
57345;SDS011;43181;50.974;18.244;2023-04-30T13:26:32;0.20;;;0.20;;
57345;SDS011;43181;50.974;18.244;2023-04-30T13:28:57;1.70;;;0.40;;
57345;SDS011;43181;50.974;18.244;2023-04-30T13:31:23;0.30;;;0.30;;
57345;SDS011;43181;50.974;18.244;2023-04-30T13:33:49;0.20;;;0.20;;
57345;SDS011;43181;50.974;18.244;2023-04-30T13:36:15;1.40;;;0.70;;
57345;SDS011;43181;50.974;18.244;2023-04-30T13:38:40;0.90;;;0.40;;
57345;SDS011;43181;50.974;18.244;2023-04-30T13:41:06;0.80;;;0.50;;
57345;SDS011;43181;50.974;18.244;2023-04-30T13:43:32;3.40;;;0.80;;
57345;SDS011;43181;50.974;18.244;2023-04-30T13:45:57;0.50;;;0.40;;
57345;SDS011;43181;50.974;18.244;2023-04-30T13:48:23;0.60;;;0.50;;
57345;SDS011;43181;50.974;18.244;2023-04-30T13:50:50;0.70;;;0.50;;
57345;SDS011;43181;50.974;18.244;2023-04-30T13:53:16;0.60;;;0.30;;
57345;SDS011;43181;50.974;18.244;2023-04-30T13:55:42;0.90;;;0.50;;
57345;SDS011;43181;50.974;18.244;2023-04-30T13:58:07;1.70;;;0.90;;
57345;SDS011;43181;50.974;18.244;2023-04-30T14:00:33;1.90;;;0.50;;
57345;SDS011;43181;50.974;18.244;2023-04-30T14:02:59;0.30;;;0.30;;
57345;SDS011;43181;50.974;18.244;2023-04-30T14:05:25;0.70;;;0.70;;
57345;SDS011;43181;50.974;18.244;2023-04-30T14:07:51;0.40;;;0.30;;
57345;SDS011;43181;50.974;18.244;2023-04-30T14:10:16;1.30;;;0.30;;
57345;SDS011;43181;50.974;18.244;2023-04-30T14:12:42;1.10;;;0.60;;
57345;SDS011;43181;50.974;18.244;2023-04-30T14:15:07;0.30;;;0.30;;
57345;SDS011;43181;50.974;18.244;2023-04-30T14:17:34;0.70;;;0.50;;
57345;SDS011;43181;50.974;18.244;2023-04-30T14:19:59;1.00;;;0.80;;
57345;SDS011;43181;50.974;18.244;2023-04-30T14:22:25;0.30;;;0.30;;
57345;SDS011;43181;50.974;18.244;2023-04-30T14:24:51;0.10;;;0.10;;
57345;SDS011;43181;50.974;18.244;2023-04-30T14:27:17;0.20;;;0.20;;
57345;SDS011;43181;50.974;18.244;2023-04-30T14:29:43;0.70;;;0.60;;
57345;SDS011;43181;50.974;18.244;2023-04-30T14:32:09;1.00;;;0.40;;
57345;SDS011;43181;50.974;18.244;2023-04-30T14:34:34;0.30;;;0.30;;
57345;SDS011;43181;50.974;18.244;2023-04-30T14:37:01;2.00;;;0.80;;
57345;SDS011;43181;50.974;18.244;2023-04-30T14:39:27;0.50;;;0.30;;
57345;SDS011;43181;50.974;18.244;2023-04-30T14:41:53;0.90;;;0.40;;
57345;SDS011;43181;50.974;18.244;2023-04-30T14:44:18;1.60;;;0.50;;
57345;SDS011;43181;50.974;18.244;2023-04-30T14:46:45;0.60;;;0.30;;
57345;SDS011;43181;50.974;18.244;2023-04-30T14:49:11;0.80;;;0.60;;
57345;SDS011;43181;50.974;18.244;2023-04-30T14:51:37;0.50;;;0.20;;
57345;SDS011;43181;50.974;18.244;2023-04-30T14:54:03;0.70;;;0.20;;
57345;SDS011;43181;50.974;18.244;2023-04-30T14:56:28;0.40;;;0.40;;
57345;SDS011;43181;50.974;18.244;2023-04-30T14:58:55;0.40;;;0.40;;
57345;SDS011;43181;50.974;18.244;2023-04-30T15:01:20;0.30;;;0.30;;
57345;SDS011;43181;50.974;18.244;2023-04-30T15:03:46;1.50;;;0.50;;
57345;SDS011;43181;50.974;18.244;2023-04-30T15:06:12;0.20;;;0.20;;
57345;SDS011;43181;50.974;18.244;2023-04-30T15:08:37;0.40;;;0.40;;